Time;durP1;ratioP1;P1;durP2;ratioP2;P2;SDS_P1;SDS_P2;PMS_P1;PMS_P2;Temp;Humidity;BMP_temperature;BMP_pressure;BME280_temperature;BME280_humidity;BME280_pressure;Samples;Min_cycle;Max_cycle;Signal;HPM_P1;HPM_P2
2021/12/27 00:01:48;;;;;;;33.13;17.95;;;;;;;;;;5044509;28;20031;-74
2021/12/27 00:04:14;;;;;;;42.75;21.45;;;;;;;;;;5034840;28;20817;-74
2021/12/27 00:06:39;;;;;;;47.53;19.65;;;;;;;;;;5045167;28;20582;-74
2021/12/27 00:09:05;;;;;;;35.10;19.25;;;;;;;;;;5015918;28;20626;-74
2021/12/27 00:11:30;;;;;;;42.78;20.30;;;;;;;;;;5038339;28;20050;-74
2021/12/27 00:13:55;;;;;;;39.08;19.38;;;;;;;;;;5048751;28;20056;-74
2021/12/27 00:16:21;;;;;;;31.08;17.90;;;;;;;;;;5046774;28;20163;-74
2021/12/27 00:18:46;;;;;;;43.08;23.38;;;;;;;;;;5049385;28;20109;-73
2021/12/27 00:21:11;;;;;;;39.40;22.35;;;;;;;;;;5037642;28;20107;-74
2021/12/27 00:23:37;;;;;;;53.65;23.08;;;;;;;;;;5048252;28;20025;-73
2021/12/27 00:26:03;;;;;;;36.17;20.13;;;;;;;;;;5038505;28;20040;-73
2021/12/27 00:28:30;;;;;;;38.60;21.38;;;;;;;;;;5047278;28;20132;-74
2021/12/27 00:30:55;;;;;;;42.05;22.58;;;;;;;;;;5047771;28;20105;-74
2021/12/27 00:33:21;;;;;;;41.95;20.65;;;;;;;;;;5037993;28;20475;-73
2021/12/27 00:35:48;;;;;;;49.03;21.42;;;;;;;;;;5044670;28;20100;-73
2021/12/27 00:38:13;;;;;;;30.85;18.15;;;;;;;;;;5047741;28;20856;-74
2021/12/27 00:40:39;;;;;;;41.20;19.75;;;;;;;;;;5037966;28;20029;-73
2021/12/27 00:43:04;;;;;;;36.92;19.77;;;;;;;;;;5047031;28;20021;-73
2021/12/27 00:45:30;;;;;;;36.05;19.85;;;;;;;;;;5029910;28;20172;-74
2021/12/27 00:47:55;;;;;;;35.85;19.48;;;;;;;;;;5037945;28;20020;-74
2021/12/27 00:50:21;;;;;;;36.72;19.20;;;;;;;;;;5048427;28;20032;-74
2021/12/27 00:52:46;;;;;;;28.63;16.88;;;;;;;;;;5037557;28;20104;-74
2021/12/27 00:55:12;;;;;;;49.30;17.15;;;;;;;;;;5047955;28;20027;-73
2021/12/27 00:57:38;;;;;;;38.17;19.27;;;;;;;;;;5046354;28;20051;-73
2021/12/27 01:00:05;;;;;;;30.13;17.45;;;;;;;;;;5048384;28;20447;-73
2021/12/27 01:02:30;;;;;;;38.65;19.20;;;;;;;;;;5037661;28;20100;-74
2021/12/27 01:04:56;;;;;;;27.45;17.23;;;;;;;;;;5029271;28;20132;-74
2021/12/27 01:07:21;;;;;;;26.15;15.48;;;;;;;;;;5046866;28;20029;-73
2021/12/27 01:12:47;;;;;;;27.85;16.30;;;;;;;;;;5043974;28;20106;-73
2021/12/27 01:17:42;;;;;;;26.67;15.35;;;;;;;;;;5046367;28;20394;-73
2021/12/27 01:20:10;;;;;;;29.27;15.73;;;;;;;;;;5043267;28;20036;-74
2021/12/27 01:22:35;;;;;;;26.50;16.63;;;;;;;;;;5046517;28;20466;-74
2021/12/27 01:25:00;;;;;;;30.25;17.10;;;;;;;;;;5035947;28;20052;-74
2021/12/27 01:27:26;;;;;;;25.15;14.45;;;;;;;;;;5036757;28;20479;-73
2021/12/27 01:29:51;;;;;;;27.38;16.63;;;;;;;;;;5037600;28;20082;-73
2021/12/27 01:32:17;;;;;;;25.73;16.55;;;;;;;;;;5037221;28;20459;-72
2021/12/27 01:34:42;;;;;;;26.50;16.00;;;;;;;;;;5038265;28;20031;-74
2021/12/27 01:37:08;;;;;;;33.38;17.88;;;;;;;;;;5036524;28;20491;-74
2021/12/27 01:39:33;;;;;;;30.13;15.20;;;;;;;;;;5035295;28;20017;-74
2021/12/27 01:41:59;;;;;;;24.27;15.23;;;;;;;;;;5035067;28;20474;-73
2021/12/27 01:44:24;;;;;;;26.33;15.88;;;;;;;;;;5035027;28;20024;-74
2021/12/27 01:46:52;;;;;;;29.02;15.98;;;;;;;;;;5035441;28;20025;-73
2021/12/27 01:49:17;;;;;;;28.45;16.13;;;;;;;;;;5035199;28;20090;-73
2021/12/27 01:51:44;;;;;;;30.52;16.85;;;;;;;;;;5036488;28;20447;-73
2021/12/27 01:54:09;;;;;;;28.90;14.18;;;;;;;;;;5037461;28;20025;-73
2021/12/27 01:56:34;;;;;;;21.20;13.18;;;;;;;;;;5037694;28;20040;-73
2021/12/27 01:59:00;;;;;;;27.77;15.95;;;;;;;;;;5036942;28;20033;-73
2021/12/27 02:01:25;;;;;;;23.08;13.90;;;;;;;;;;5037091;28;20035;-73
2021/12/27 02:03:52;;;;;;;27.13;15.48;;;;;;;;;;5037750;28;20028;-73
2021/12/27 02:06:18;;;;;;;27.33;16.38;;;;;;;;;;5019578;28;20049;-73
2021/12/27 02:08:43;;;;;;;23.70;12.98;;;;;;;;;;5019576;28;20438;-73
2021/12/27 02:11:10;;;;;;;22.77;14.50;;;;;;;;;;5037713;28;20078;-73
2021/12/27 02:13:42;;;;;;;22.48;13.52;;;;;;;;;;5036607;28;20024;-73
2021/12/27 02:16:08;;;;;;;24.27;14.35;;;;;;;;;;5037415;28;20019;-73
2021/12/27 02:18:34;;;;;;;21.10;14.13;;;;;;;;;;5036664;28;20033;-73
2021/12/27 02:20:59;;;;;;;22.90;13.57;;;;;;;;;;5037064;28;20031;-73
2021/12/27 02:23:25;;;;;;;24.23;14.35;;;;;;;;;;5018374;28;20083;-73
2021/12/27 02:25:50;;;;;;;24.17;14.20;;;;;;;;;;5037236;28;20028;-73
2021/12/27 02:28:17;;;;;;;24.73;15.18;;;;;;;;;;5036798;28;20131;-74
2021/12/27 02:30:43;;;;;;;23.48;13.75;;;;;;;;;;5036687;28;20132;-74
2021/12/27 02:33:08;;;;;;;19.90;12.55;;;;;;;;;;5019480;28;20115;-74
2021/12/27 02:35:38;;;;;;;24.33;13.88;;;;;;;;;;5036111;28;20108;-73
2021/12/27 02:38:05;;;;;;;21.10;13.52;;;;;;;;;;5036439;28;20119;-73
2021/12/27 02:40:31;;;;;;;23.77;14.88;;;;;;;;;;5036742;28;20029;-73
2021/12/27 02:42:58;;;;;;;22.40;13.15;;;;;;;;;;5036409;28;20021;-73
2021/12/27 02:45:24;;;;;;;24.35;15.55;;;;;;;;;;5037227;28;20028;-73
2021/12/27 02:47:49;;;;;;;21.60;14.20;;;;;;;;;;5036154;28;20285;-73
2021/12/27 02:50:15;;;;;;;22.73;14.43;;;;;;;;;;5036417;28;20032;-73
2021/12/27 02:52:41;;;;;;;22.77;14.07;;;;;;;;;;5035900;28;20044;-73
2021/12/27 02:55:06;;;;;;;23.65;15.32;;;;;;;;;;5035742;28;20063;-73
2021/12/27 02:57:32;;;;;;;23.02;14.82;;;;;;;;;;5035478;28;20025;-74
2021/12/27 02:59:57;;;;;;;20.60;12.98;;;;;;;;;;5036365;28;20676;-73
2021/12/27 03:02:25;;;;;;;17.23;11.38;;;;;;;;;;5035316;28;20139;-72
2021/12/27 03:04:50;;;;;;;18.27;12.10;;;;;;;;;;5035583;28;20041;-73
2021/12/27 03:07:16;;;;;;;19.20;12.43;;;;;;;;;;5036909;28;20052;-73
2021/12/27 03:09:41;;;;;;;18.88;12.40;;;;;;;;;;5035810;28;20024;-73
2021/12/27 03:12:10;;;;;;;17.98;11.40;;;;;;;;;;5036138;28;20381;-73
2021/12/27 03:14:35;;;;;;;19.65;12.02;;;;;;;;;;5036390;28;20029;-73
2021/12/27 03:17:00;;;;;;;17.55;12.25;;;;;;;;;;5036265;28;20025;-73
2021/12/27 03:19:26;;;;;;;18.52;12.50;;;;;;;;;;5035725;28;20071;-73
2021/12/27 03:21:51;;;;;;;22.02;13.20;;;;;;;;;;5036033;28;20067;-73
2021/12/27 03:24:17;;;;;;;20.98;12.23;;;;;;;;;;5036000;28;20463;-73
2021/12/27 03:26:42;;;;;;;17.63;11.45;;;;;;;;;;5035425;28;20013;-74
2021/12/27 03:29:07;;;;;;;18.65;11.55;;;;;;;;;;5035736;28;20033;-73
2021/12/27 03:31:36;;;;;;;17.85;10.77;;;;;;;;;;5035875;28;20460;-73
2021/12/27 03:34:02;;;;;;;19.30;10.80;;;;;;;;;;5035835;28;20025;-73
2021/12/27 03:36:28;;;;;;;16.60;10.57;;;;;;;;;;5035880;28;20070;-73
2021/12/27 03:38:54;;;;;;;18.30;10.73;;;;;;;;;;5034616;28;20037;-73
2021/12/27 03:41:20;;;;;;;17.63;11.32;;;;;;;;;;5035671;28;20047;-73
2021/12/27 03:43:46;;;;;;;15.05;10.20;;;;;;;;;;5035900;28;20021;-74
2021/12/27 03:46:11;;;;;;;15.45;10.30;;;;;;;;;;5034218;28;20032;-74
2021/12/27 03:48:37;;;;;;;19.42;11.32;;;;;;;;;;5034910;28;20048;-74
2021/12/27 03:51:02;;;;;;;12.75;8.82;;;;;;;;;;5017842;28;20036;-73
2021/12/27 03:53:29;;;;;;;15.23;10.10;;;;;;;;;;5017993;28;20025;-73
2021/12/27 03:55:55;;;;;;;12.70;9.35;;;;;;;;;;5034716;28;20055;-73
2021/12/27 03:58:47;;;;;;;13.75;9.02;;;;;;;;;;5035026;28;20033;-73
2021/12/27 04:01:16;;;;;;;11.35;7.82;;;;;;;;;;5034347;28;20020;-73
2021/12/27 04:03:44;;;;;;;13.73;10.07;;;;;;;;;;5034889;28;20017;-73
2021/12/27 04:06:11;;;;;;;13.20;9.07;;;;;;;;;;5034572;28;20541;-73
2021/12/27 04:08:36;;;;;;;11.55;8.43;;;;;;;;;;5035528;28;20478;-73
2021/12/27 04:11:02;;;;;;;12.15;8.40;;;;;;;;;;5034764;28;20502;-73
2021/12/27 04:13:27;;;;;;;16.30;10.88;;;;;;;;;;5034700;28;20044;-74
2021/12/27 04:15:53;;;;;;;14.65;10.43;;;;;;;;;;5035413;28;20021;-73
2021/12/27 04:18:19;;;;;;;13.73;9.55;;;;;;;;;;5035466;28;20044;-73
2021/12/27 04:20:45;;;;;;;16.83;11.50;;;;;;;;;;5035621;28;20078;-73
2021/12/27 04:23:10;;;;;;;15.35;10.13;;;;;;;;;;5035546;28;20414;-74
2021/12/27 04:25:35;;;;;;;17.55;11.50;;;;;;;;;;5034775;28;20475;-74
2021/12/27 04:28:01;;;;;;;19.23;12.48;;;;;;;;;;5034084;28;20025;-73
2021/12/27 04:30:26;;;;;;;18.17;12.52;;;;;;;;;;5034891;28;20029;-74
2021/12/27 04:32:52;;;;;;;20.80;13.02;;;;;;;;;;5016888;28;20017;-73
2021/12/27 04:35:18;;;;;;;20.20;13.32;;;;;;;;;;5035127;28;20052;-73
2021/12/27 04:37:44;;;;;;;20.58;12.90;;;;;;;;;;5035426;28;20064;-73
2021/12/27 04:40:10;;;;;;;21.80;12.88;;;;;;;;;;5035109;28;20053;-74
2021/12/27 04:42:37;;;;;;;16.17;10.75;;;;;;;;;;5034438;28;20748;-73
2021/12/27 04:45:04;;;;;;;12.02;8.75;;;;;;;;;;5035845;28;20538;-73
2021/12/27 04:47:29;;;;;;;14.32;10.02;;;;;;;;;;5034867;28;20039;-73
2021/12/27 04:49:55;;;;;;;14.55;10.40;;;;;;;;;;5034115;28;20104;-73
2021/12/27 04:52:20;;;;;;;12.30;8.38;;;;;;;;;;5034440;28;20516;-73
2021/12/27 04:54:45;;;;;;;14.98;11.00;;;;;;;;;;5035189;28;20064;-73
2021/12/27 04:57:11;;;;;;;14.40;9.95;;;;;;;;;;5036544;28;20025;-73
2021/12/27 04:59:36;;;;;;;12.48;8.82;;;;;;;;;;5038724;28;20458;-74
2021/12/27 05:02:02;;;;;;;11.65;8.25;;;;;;;;;;5037982;28;20459;-73
2021/12/27 05:04:28;;;;;;;18.02;12.88;;;;;;;;;;5038412;28;20067;-74
2021/12/27 05:06:53;;;;;;;16.42;11.23;;;;;;;;;;5038494;28;20057;-73
2021/12/27 05:09:18;;;;;;;14.35;10.88;;;;;;;;;;5037643;28;20033;-73
2021/12/27 05:11:44;;;;;;;24.48;14.73;;;;;;;;;;5037658;28;20498;-73
2021/12/27 05:14:09;;;;;;;30.48;20.15;;;;;;;;;;5037607;28;20029;-74
2021/12/27 05:16:35;;;;;;;50.75;32.08;;;;;;;;;;5037773;28;20028;-73
2021/12/27 05:19:00;;;;;;;108.50;56.38;;;;;;;;;;5020933;28;20037;-73
2021/12/27 05:21:25;;;;;;;47.08;25.90;;;;;;;;;;5037670;28;20029;-74
2021/12/27 05:23:51;;;;;;;20.10;13.38;;;;;;;;;;5037491;28;20478;-73
2021/12/27 05:26:17;;;;;;;58.92;42.00;;;;;;;;;;5037313;28;20031;-73
2021/12/27 05:28:42;;;;;;;41.97;34.88;;;;;;;;;;5038437;28;20126;-73
2021/12/27 05:31:07;;;;;;;35.60;27.90;;;;;;;;;;5037530;28;20017;-73
2021/12/27 05:33:33;;;;;;;33.03;20.67;;;;;;;;;;5038277;28;20391;-73
2021/12/27 05:35:58;;;;;;;26.38;17.75;;;;;;;;;;5038242;28;20047;-74
2021/12/27 05:38:23;;;;;;;22.52;16.52;;;;;;;;;;5036941;28;20029;-73
2021/12/27 05:40:49;;;;;;;29.30;22.15;;;;;;;;;;5037626;28;20650;-73
2021/12/27 05:43:14;;;;;;;52.22;35.33;;;;;;;;;;5037131;28;20021;-73
2021/12/27 05:45:41;;;;;;;38.78;24.45;;;;;;;;;;5018754;28;20453;-74
2021/12/27 05:48:06;;;;;;;41.67;25.30;;;;;;;;;;5036073;28;20437;-74
2021/12/27 05:50:32;;;;;;;32.83;21.00;;;;;;;;;;5037076;28;20021;-74
2021/12/27 05:52:58;;;;;;;39.03;25.20;;;;;;;;;;5035802;28;20464;-74
2021/12/27 05:55:23;;;;;;;28.48;17.88;;;;;;;;;;5018695;28;20494;-73
2021/12/27 05:57:49;;;;;;;33.25;22.20;;;;;;;;;;5037711;28;20052;-74
2021/12/27 06:00:15;;;;;;;42.30;26.20;;;;;;;;;;5037329;28;20024;-74
2021/12/27 06:02:41;;;;;;;68.88;38.33;;;;;;;;;;5031815;28;20032;-73
2021/12/27 06:05:07;;;;;;;31.25;21.10;;;;;;;;;;5035789;28;20049;-73
2021/12/27 06:07:32;;;;;;;26.02;17.63;;;;;;;;;;5036450;28;20379;-73
2021/12/27 06:09:58;;;;;;;28.20;16.17;;;;;;;;;;5036741;28;20113;-73
2021/12/27 06:12:23;;;;;;;125.45;64.68;;;;;;;;;;5037472;28;20500;-73
2021/12/27 06:14:49;;;;;;;48.33;26.02;;;;;;;;;;5036958;28;20044;-73
2021/12/27 06:17:15;;;;;;;45.90;25.08;;;;;;;;;;5036868;28;20025;-73
2021/12/27 06:19:41;;;;;;;41.40;24.55;;;;;;;;;;5035583;28;20026;-73
2021/12/27 06:22:06;;;;;;;27.42;17.08;;;;;;;;;;5037059;28;20360;-74
2021/12/27 06:24:31;;;;;;;20.35;13.55;;;;;;;;;;5036900;28;20025;-73
2021/12/27 06:26:57;;;;;;;22.00;15.68;;;;;;;;;;5036566;28;20104;-74
2021/12/27 06:29:22;;;;;;;21.63;15.48;;;;;;;;;;5036215;28;20028;-72
2021/12/27 06:31:48;;;;;;;25.38;15.07;;;;;;;;;;5036281;28;20068;-72
2021/12/27 06:34:14;;;;;;;29.77;16.90;;;;;;;;;;5036451;28;20021;-72
2021/12/27 06:36:39;;;;;;;145.73;64.68;;;;;;;;;;5035800;28;20025;-72
2021/12/27 06:39:08;;;;;;;100.22;46.58;;;;;;;;;;5035515;28;20479;-76
2021/12/27 06:41:34;;;;;;;175.35;86.95;;;;;;;;;;5035905;28;20131;-73
2021/12/27 06:43:59;;;;;;;118.75;59.03;;;;;;;;;;5041724;28;20558;-73
2021/12/27 06:46:26;;;;;;;48.40;24.55;;;;;;;;;;5035682;28;20017;-73
2021/12/27 06:48:51;;;;;;;26.92;15.57;;;;;;;;;;5042498;28;20055;-73
2021/12/27 06:51:17;;;;;;;51.10;25.95;;;;;;;;;;5035263;28;20061;-73
2021/12/27 06:53:42;;;;;;;34.70;19.75;;;;;;;;;;5036652;28;20044;-73
2021/12/27 06:56:08;;;;;;;23.77;15.68;;;;;;;;;;5036018;28;20028;-73
2021/12/27 06:58:33;;;;;;;76.97;41.58;;;;;;;;;;5036074;28;20035;-73
2021/12/27 07:00:58;;;;;;;54.15;29.15;;;;;;;;;;5017569;28;20484;-74
2021/12/27 07:03:24;;;;;;;79.53;43.53;;;;;;;;;;5016597;28;20021;-74
2021/12/27 07:05:49;;;;;;;32.70;20.20;;;;;;;;;;5035400;28;20049;-74
2021/12/27 07:08:16;;;;;;;48.28;24.10;;;;;;;;;;5036101;28;20064;-74
2021/12/27 07:10:41;;;;;;;107.78;41.30;;;;;;;;;;5034322;28;20025;-74
2021/12/27 07:13:09;;;;;;;83.18;33.22;;;;;;;;;;5034531;28;20025;-74
2021/12/27 07:15:41;;;;;;;43.28;21.40;;;;;;;;;;5034858;28;20364;-73
2021/12/27 07:18:06;;;;;;;162.43;72.70;;;;;;;;;;5035114;28;20063;-74
2021/12/27 07:20:31;;;;;;;101.18;48.35;;;;;;;;;;5034499;28;20702;-74
2021/12/27 07:22:57;;;;;;;146.90;75.82;;;;;;;;;;5032800;28;20025;-73
2021/12/27 07:25:23;;;;;;;103.00;56.80;;;;;;;;;;5035167;28;20056;-74
2021/12/27 07:27:48;;;;;;;70.80;39.53;;;;;;;;;;5035036;28;20056;-74
2021/12/27 07:30:13;;;;;;;191.80;90.22;;;;;;;;;;5034443;28;20472;-73
2021/12/27 07:32:39;;;;;;;101.40;46.85;;;;;;;;;;5017013;28;20023;-73
2021/12/27 07:35:05;;;;;;;60.30;33.47;;;;;;;;;;5034720;28;20020;-74
2021/12/27 07:37:30;;;;;;;72.25;40.47;;;;;;;;;;5034738;28;20448;-74
2021/12/27 07:39:57;;;;;;;114.97;53.38;;;;;;;;;;5034918;28;20069;-74
2021/12/27 07:42:22;;;;;;;141.55;68.03;;;;;;;;;;5034849;28;20114;-73
2021/12/27 07:44:47;;;;;;;91.95;41.88;;;;;;;;;;5034640;28;20033;-74
2021/12/27 07:47:13;;;;;;;85.93;39.65;;;;;;;;;;5034521;28;20741;-74
2021/12/27 07:49:39;;;;;;;87.90;41.67;;;;;;;;;;5036204;28;20074;-75
2021/12/27 07:52:05;;;;;;;297.73;149.65;;;;;;;;;;5034502;28;20443;-73
2021/12/27 07:54:31;;;;;;;166.77;80.20;;;;;;;;;;5035849;28;20017;-74
2021/12/27 07:56:57;;;;;;;58.47;31.10;;;;;;;;;;5035635;28;20024;-74
2021/12/27 07:59:22;;;;;;;176.85;91.28;;;;;;;;;;5034712;28;20452;-74
2021/12/27 08:01:47;;;;;;;88.35;47.25;;;;;;;;;;5035480;28;20021;-74
2021/12/27 08:04:13;;;;;;;113.78;58.95;;;;;;;;;;5035735;28;20033;-74
2021/12/27 08:06:38;;;;;;;52.65;29.75;;;;;;;;;;5034908;28;20063;-73
2021/12/27 08:09:05;;;;;;;35.60;23.70;;;;;;;;;;5035677;28;20108;-74
2021/12/27 08:11:30;;;;;;;43.15;30.83;;;;;;;;;;5035672;28;20061;-74
2021/12/27 08:13:55;;;;;;;84.55;50.28;;;;;;;;;;5035145;28;20059;-75
2021/12/27 08:16:24;;;;;;;99.88;51.25;;;;;;;;;;5035218;28;20029;-75
2021/12/27 08:18:52;;;;;;;47.22;31.52;;;;;;;;;;5035399;28;20098;-74
2021/12/27 08:21:18;;;;;;;50.67;35.28;;;;;;;;;;5034770;28;20061;-76
2021/12/27 08:23:43;;;;;;;58.58;40.63;;;;;;;;;;5035470;28;20028;-75
2021/12/27 08:26:09;;;;;;;43.92;28.20;;;;;;;;;;5016639;28;20431;-74
2021/12/27 08:28:34;;;;;;;63.40;39.40;;;;;;;;;;5035390;28;20028;-74
2021/12/27 08:30:59;;;;;;;81.30;53.13;;;;;;;;;;5036353;28;20115;-73
2021/12/27 08:33:25;;;;;;;107.95;65.70;;;;;;;;;;5038715;28;20048;-74
2021/12/27 08:35:50;;;;;;;48.75;30.73;;;;;;;;;;5038551;28;20033;-75
2021/12/27 08:38:18;;;;;;;53.13;34.45;;;;;;;;;;5038818;28;20448;-73
2021/12/27 08:40:44;;;;;;;57.45;37.58;;;;;;;;;;5038725;28;20036;-74
2021/12/27 08:43:10;;;;;;;36.05;25.00;;;;;;;;;;5038381;28;20023;-74
2021/12/27 08:45:35;;;;;;;70.93;49.70;;;;;;;;;;5038475;28;20028;-74
2021/12/27 08:48:00;;;;;;;72.40;46.80;;;;;;;;;;5038404;28;20029;-74
2021/12/27 08:50:26;;;;;;;120.18;75.95;;;;;;;;;;5038335;28;20025;-74
2021/12/27 08:52:51;;;;;;;91.95;53.55;;;;;;;;;;5038950;28;20537;-75
2021/12/27 08:55:17;;;;;;;92.80;60.45;;;;;;;;;;5037797;28;20063;-74
2021/12/27 08:57:43;;;;;;;43.35;26.40;;;;;;;;;;5038926;28;20132;-75
2021/12/27 09:00:10;;;;;;;34.00;22.05;;;;;;;;;;5038013;28;20057;-75
2021/12/27 09:02:36;;;;;;;34.67;25.65;;;;;;;;;;5038018;28;20025;-74
2021/12/27 09:05:02;;;;;;;54.65;33.80;;;;;;;;;;5037277;28;20040;-74
2021/12/27 09:07:27;;;;;;;41.60;25.20;;;;;;;;;;5038060;28;20025;-74
2021/12/27 09:09:53;;;;;;;70.63;40.78;;;;;;;;;;5037293;28;20089;-74
2021/12/27 09:12:18;;;;;;;77.93;46.63;;;;;;;;;;5037635;28;20128;-75
2021/12/27 09:14:44;;;;;;;143.98;80.40;;;;;;;;;;5038374;28;20051;-74
2021/12/27 09:17:09;;;;;;;92.28;54.80;;;;;;;;;;5037845;28;20035;-74
2021/12/27 09:19:34;;;;;;;90.88;53.85;;;;;;;;;;5038124;28;20533;-74
2021/12/27 09:22:00;;;;;;;92.07;56.50;;;;;;;;;;5018962;28;20029;-74
2021/12/27 09:24:26;;;;;;;63.50;37.25;;;;;;;;;;5019741;28;20024;-74
2021/12/27 09:26:51;;;;;;;69.03;38.35;;;;;;;;;;5037947;28;20423;-75
2021/12/27 09:29:16;;;;;;;32.30;18.52;;;;;;;;;;5037700;28;20383;-75
2021/12/27 09:31:42;;;;;;;30.08;18.50;;;;;;;;;;5037716;28;20025;-75
2021/12/27 09:34:07;;;;;;;31.40;20.92;;;;;;;;;;5037369;28;20048;-74
2021/12/27 09:36:33;;;;;;;80.55;50.22;;;;;;;;;;5037885;28;20099;-74
2021/12/27 09:38:58;;;;;;;121.00;69.35;;;;;;;;;;5037062;28;20061;-74
2021/12/27 09:41:24;;;;;;;64.15;40.00;;;;;;;;;;5037738;28;20021;-74
2021/12/27 09:43:50;;;;;;;38.05;24.63;;;;;;;;;;5036701;28;20087;-74
2021/12/27 09:46:16;;;;;;;31.67;21.70;;;;;;;;;;5037309;28;20134;-75
2021/12/27 09:48:42;;;;;;;44.15;31.35;;;;;;;;;;5036887;28;20024;-75
2021/12/27 09:51:08;;;;;;;40.15;27.60;;;;;;;;;;5036516;28;20439;-74
2021/12/27 09:53:33;;;;;;;28.50;20.38;;;;;;;;;;5037395;28;20017;-74
2021/12/27 09:55:59;;;;;;;42.42;34.70;;;;;;;;;;5037049;28;20112;-75
2021/12/27 09:58:24;;;;;;;70.32;50.70;;;;;;;;;;5036943;28;20491;-75
2021/12/27 10:00:50;;;;;;;50.80;33.75;;;;;;;;;;5036871;28;20029;-75
2021/12/27 10:03:15;;;;;;;49.85;33.25;;;;;;;;;;5018632;28;20025;-74
2021/12/27 10:05:41;;;;;;;36.92;26.30;;;;;;;;;;5037562;28;20052;-74
2021/12/27 10:08:06;;;;;;;32.78;23.10;;;;;;;;;;5037234;28;20039;-74
2021/12/27 10:10:32;;;;;;;24.33;16.33;;;;;;;;;;5037002;28;20040;-74
2021/12/27 10:12:58;;;;;;;27.52;18.23;;;;;;;;;;5036371;28;20372;-74
2021/12/27 10:15:31;;;;;;;28.45;18.40;;;;;;;;;;5037148;28;20025;-73
2021/12/27 10:17:57;;;;;;;26.73;17.90;;;;;;;;;;5036769;28;20060;-74
2021/12/27 10:20:28;;;;;;;72.85;41.17;;;;;;;;;;5036509;28;20060;-74
2021/12/27 10:22:54;;;;;;;43.88;26.55;;;;;;;;;;5036493;28;20017;-74
2021/12/27 10:25:22;;;;;;;42.40;26.30;;;;;;;;;;5035435;28;20076;-74
2021/12/27 10:27:48;;;;;;;47.75;32.70;;;;;;;;;;5036765;28;20025;-74
2021/12/27 10:30:16;;;;;;;65.18;41.95;;;;;;;;;;5036393;28;20471;-75
2021/12/27 10:32:41;;;;;;;128.63;63.85;;;;;;;;;;5035594;28;20025;-74
2021/12/27 10:35:08;;;;;;;126.57;69.80;;;;;;;;;;5036252;28;20036;-74
2021/12/27 10:37:34;;;;;;;216.95;105.90;;;;;;;;;;5036011;28;20020;-74
2021/12/27 10:40:04;;;;;;;119.38;58.15;;;;;;;;;;5037132;28;20061;-75
2021/12/27 10:42:37;;;;;;;97.43;54.92;;;;;;;;;;5036723;28;20021;-75
2021/12/27 10:45:07;;;;;;;104.40;55.58;;;;;;;;;;5036427;28;20036;-74
2021/12/27 10:47:37;;;;;;;86.93;47.30;;;;;;;;;;5035770;28;20491;-75
2021/12/27 10:50:03;;;;;;;;;;;;;;;;;;5037161;28;20564;-75
2021/12/27 10:52:49;;;;;;;55.42;32.80;;;;;;;;;;5035917;28;19912;-75
2021/12/27 10:55:16;;;;;;;43.65;25.83;;;;;;;;;;5034570;28;20028;-75
2021/12/27 10:57:41;;;;;;;63.78;37.00;;;;;;;;;;5035469;28;20438;-75
2021/12/27 11:00:21;;;;;;;30.65;19.50;;;;;;;;;;5035656;28;20033;-74
2021/12/27 11:02:46;;;;;;;23.90;15.77;;;;;;;;;;5036301;28;20379;-75
2021/12/27 11:05:16;;;;;;;39.40;28.02;;;;;;;;;;5036245;28;20057;-74
2021/12/27 11:07:42;;;;;;;;;;;;;;;;;;5036850;28;20025;-75
2021/12/27 11:10:07;;;;;;;23.05;14.98;;;;;;;;;;5036681;28;19905;-74
2021/12/27 11:12:33;;;;;;;43.92;25.60;;;;;;;;;;5035435;28;20027;-74
2021/12/27 11:14:58;;;;;;;37.92;23.77;;;;;;;;;;5017409;28;20028;-75
2021/12/27 11:17:23;;;;;;;19.75;12.07;;;;;;;;;;5035091;28;20044;-75
2021/12/27 11:19:49;;;;;;;51.63;33.97;;;;;;;;;;5035470;28;20029;-75
2021/12/27 11:22:14;;;;;;;18.88;12.73;;;;;;;;;;5035071;28;20028;-75
2021/12/27 11:24:40;;;;;;;26.30;15.85;;;;;;;;;;5035870;28;20139;-75
2021/12/27 11:27:12;;;;;;;21.58;13.40;;;;;;;;;;5017285;28;20036;-75
2021/12/27 11:29:37;;;;;;;27.15;16.10;;;;;;;;;;5035999;28;20033;-75
2021/12/27 11:32:10;;;;;;;26.35;16.33;;;;;;;;;;5035348;28;20387;-75
2021/12/27 11:34:55;;;;;;;26.33;15.35;;;;;;;;;;5036031;28;20032;-75
2021/12/27 11:37:20;;;;;;;15.48;10.05;;;;;;;;;;5035237;28;20479;-74
2021/12/27 11:39:46;;;;;;;20.15;13.68;;;;;;;;;;5035823;28;20036;-74
2021/12/27 11:42:12;;;;;;;16.35;11.73;;;;;;;;;;5034868;28;20456;-75
2021/12/27 11:44:44;;;;;;;10.55;7.20;;;;;;;;;;5035149;28;20021;-75
2021/12/27 11:47:11;;;;;;;12.43;8.18;;;;;;;;;;5035015;28;20017;-75
2021/12/27 11:49:43;;;;;;;12.90;8.85;;;;;;;;;;5016669;28;20033;-75
2021/12/27 11:52:18;;;;;;;50.33;25.25;;;;;;;;;;5035424;28;20021;-76
2021/12/27 11:54:48;;;;;;;13.05;8.00;;;;;;;;;;5035202;28;20029;-75
2021/12/27 11:57:33;;;;;;;9.73;6.80;;;;;;;;;;5035769;28;20021;-75
2021/12/27 11:59:59;;;;;;;9.50;6.82;;;;;;;;;;5034696;28;20078;-76
2021/12/27 12:02:25;;;;;;;9.57;7.38;;;;;;;;;;5035246;28;20505;-76
2021/12/27 12:04:53;;;;;;;11.70;7.95;;;;;;;;;;5033993;28;21000;-74
2021/12/27 12:07:33;;;;;;;15.32;10.75;;;;;;;;;;5038558;28;20028;-75
2021/12/27 12:09:59;;;;;;;13.35;8.93;;;;;;;;;;5021014;28;20119;-75
2021/12/27 12:12:28;;;;;;;17.20;12.77;;;;;;;;;;5039185;28;20020;-75
2021/12/27 12:14:54;;;;;;;61.00;36.40;;;;;;;;;;5038672;28;20499;-76
2021/12/27 12:17:34;;;;;;;36.42;19.92;;;;;;;;;;5020848;28;20056;-75
2021/12/27 12:20:00;;;;;;;32.35;20.80;;;;;;;;;;5020735;28;20127;-75
2021/12/27 12:22:38;;;;;;;29.27;20.55;;;;;;;;;;5020503;28;20516;-75
2021/12/27 12:25:24;;;;;;;24.67;16.75;;;;;;;;;;5038380;28;20021;-75
2021/12/27 12:28:01;;;;;;;23.73;17.02;;;;;;;;;;5038548;28;20075;-75
2021/12/27 12:30:28;;;;;;;19.80;12.40;;;;;;;;;;5038643;28;20040;-77
2021/12/27 12:33:03;;;;;;;41.88;24.20;;;;;;;;;;5020133;28;20021;-77
2021/12/27 12:35:34;;;;;;;60.10;40.05;;;;;;;;;;5038950;28;20025;-77
2021/12/27 12:38:10;;;;;;;69.70;45.70;;;;;;;;;;5038317;28;20460;-78
2021/12/27 12:40:35;;;;;;;53.38;38.33;;;;;;;;;;5038177;28;20110;-77
2021/12/27 12:43:01;;;;;;;48.80;31.13;;;;;;;;;;5037095;28;20486;-76
2021/12/27 12:45:30;;;;;;;51.08;36.53;;;;;;;;;;5035683;28;20020;-77
2021/12/27 12:47:55;;;;;;;51.50;36.65;;;;;;;;;;5018738;28;20083;-76
2021/12/27 12:50:21;;;;;;;51.35;35.20;;;;;;;;;;5036947;28;20021;-76
2021/12/27 12:53:06;;;;;;;36.22;26.67;;;;;;;;;;5037113;28;20032;-76
2021/12/27 12:55:34;;;;;;;30.75;21.15;;;;;;;;;;5035925;28;20025;-76
2021/12/27 12:58:00;;;;;;;26.65;18.95;;;;;;;;;;5036836;28;20098;-76
2021/12/27 13:00:28;;;;;;;26.10;16.92;;;;;;;;;;5035832;28;20064;-77
2021/12/27 13:02:53;;;;;;;24.45;15.55;;;;;;;;;;5035641;28;20537;-75
2021/12/27 13:05:19;;;;;;;54.92;34.40;;;;;;;;;;5035159;28;20079;-74
2021/12/27 13:07:49;;;;;;;42.03;27.25;;;;;;;;;;5017711;28;20048;-75
2021/12/27 13:10:32;;;;;;;22.55;16.40;;;;;;;;;;5036437;28;20158;-74
2021/12/27 13:12:57;;;;;;;49.55;37.20;;;;;;;;;;5037195;28;20071;-73
2021/12/27 13:15:24;;;;;;;22.73;17.27;;;;;;;;;;5038011;28;20059;-75
2021/12/27 13:18:06;;;;;;;24.48;17.77;;;;;;;;;;5036619;28;20020;-73
2021/12/27 13:20:33;;;;;;;28.38;20.25;;;;;;;;;;5038061;28;20037;-75
2021/12/27 13:22:58;;;;;;;44.47;31.00;;;;;;;;;;5037550;28;21016;-74
2021/12/27 13:25:33;;;;;;;80.75;53.63;;;;;;;;;;5037984;28;20025;-75
2021/12/27 13:28:15;;;;;;;74.45;48.75;;;;;;;;;;5037616;28;20025;-75
2021/12/27 13:31:01;;;;;;;70.25;40.38;;;;;;;;;;5045331;28;20041;-75
2021/12/27 13:33:47;;;;;;;45.95;29.60;;;;;;;;;;5057701;28;20090;-75
2021/12/27 13:36:14;;;;;;;44.40;29.13;;;;;;;;;;5056242;28;20394;-74
2021/12/27 13:38:41;;;;;;;32.40;24.10;;;;;;;;;;5058327;28;20684;-74
2021/12/27 13:41:07;;;;;;;45.03;30.17;;;;;;;;;;5057067;28;20443;-73
2021/12/27 13:43:33;;;;;;;36.97;24.70;;;;;;;;;;5057411;28;20424;-73
2021/12/27 13:46:09;;;;;;;29.77;19.77;;;;;;;;;;5056689;28;20451;-74
2021/12/27 13:48:34;;;;;;;53.70;32.35;;;;;;;;;;5056754;28;20036;-74
2021/12/27 13:51:01;;;;;;;66.60;37.08;;;;;;;;;;5055151;28;20037;-74
2021/12/27 13:53:26;;;;;;;48.83;30.40;;;;;;;;;;5029305;28;20024;-76
2021/12/27 13:55:51;;;;;;;57.42;31.95;;;;;;;;;;5027606;28;20029;-75
2021/12/27 13:58:19;;;;;;;51.67;28.55;;;;;;;;;;5025312;28;20026;-75
2021/12/27 14:00:45;;;;;;;39.85;23.50;;;;;;;;;;5027397;28;20032;-74
2021/12/27 14:03:28;;;;;;;51.22;28.55;;;;;;;;;;5026702;28;20376;-75
2021/12/27 14:05:54;;;;;;;45.15;24.98;;;;;;;;;;5027443;28;20105;-75
2021/12/27 14:08:19;;;;;;;50.72;27.02;;;;;;;;;;5010074;28;20036;-74
2021/12/27 14:10:58;;;;;;;47.00;24.75;;;;;;;;;;5023685;28;20025;-75
2021/12/27 14:13:23;;;;;;;41.80;22.23;;;;;;;;;;5003062;28;20017;-74
2021/12/27 14:15:48;;;;;;;37.33;21.00;;;;;;;;;;5036109;28;20631;-74
2021/12/27 14:18:17;;;;;;;37.83;22.50;;;;;;;;;;5036876;28;20057;-75
2021/12/27 14:20:42;;;;;;;30.13;19.25;;;;;;;;;;5035093;28;20430;-74
2021/12/27 14:23:12;;;;;;;29.90;18.15;;;;;;;;;;5036268;28;20025;-73